createdAt,value
2022-12-15T00:05:01.279Z,94437.72
2022-12-15T00:10:28.829Z,94424.25
2022-12-15T00:15:55.468Z,94431.59
2022-12-15T00:21:19.961Z,94445.94
2022-12-15T00:26:47.995Z,94456.75
2022-12-15T00:32:09.440Z,94462.88
2022-12-15T00:37:31.478Z,94475.25
2022-12-15T00:42:40.459Z,94489.44
2022-12-15T00:47:46.243Z,94493.34
2022-12-15T00:53:07.208Z,94495.41
2022-12-15T00:58:27.225Z,94489.66
2022-12-15T01:03:47.425Z,94497.38
2022-12-15T01:09:08.324Z,94494.75
2022-12-15T01:14:33.334Z,94494.03
2022-12-15T01:19:53.681Z,94511.72
2022-12-15T01:24:55.598Z,94514.31
2022-12-15T01:29:58.493Z,94534.22
2022-12-15T01:35:06.698Z,94536.84
2022-12-15T01:40:34.243Z,94534.41
2022-12-15T01:45:54.345Z,94542.25
2022-12-15T01:51:12.913Z,94542.19
2022-12-15T01:56:18.266Z,94543.28
2022-12-15T02:01:20.075Z,94553.69
2022-12-15T02:06:26.333Z,94563.97
2022-12-15T02:12:19.934Z,94565.13
2022-12-15T02:17:40.322Z,94563.91
2022-12-15T02:23:05.222Z,94562.78
2022-12-15T02:28:13.107Z,94570.81
2022-12-15T02:33:34.227Z,94580.78
2022-12-15T02:38:42.953Z,94581.97
2022-12-15T02:43:49.910Z,94551.75
2022-12-15T02:49:10.034Z,94579.38
2022-12-15T02:54:35.359Z,94594.53
2022-12-15T02:59:55.388Z,94602.84
2022-12-15T03:05:05.644Z,94607.53
2022-12-15T03:10:13.214Z,94609.78
2022-12-15T03:15:16.152Z,94617.72
2022-12-15T03:20:22.135Z,94613.56
2022-12-15T03:25:26.054Z,94618.59
2022-12-15T03:30:30.164Z,94618.16
2022-12-15T03:35:33.626Z,94623.97
2022-12-15T03:40:44.083Z,94622.94
2022-12-15T03:45:51.498Z,94615.72
2022-12-15T03:50:55.993Z,94617.28
2022-12-15T03:55:59.701Z,94615.81
2022-12-15T04:01:13.860Z,94633.13
2022-12-15T04:06:20.531Z,94641.97
2022-12-15T04:11:24.503Z,94633.56
2022-12-15T04:16:26.127Z,94647.31
2022-12-15T04:21:30.094Z,94656.59
2022-12-15T04:26:53.488Z,94660.91
2022-12-15T04:32:34.126Z,94657.09
2022-12-15T04:37:56.884Z,94666.00
2022-12-15T04:43:20.298Z,94659.59
2022-12-15T04:48:50.821Z,94647.41
2022-12-15T04:54:13.567Z,94685.41
2022-12-15T04:59:36.447Z,94708.09
2022-12-15T05:05:01.219Z,94719.25
2022-12-15T05:10:24.913Z,94709.56
2022-12-15T05:15:49.946Z,94710.69
2022-12-15T05:21:13.069Z,94704.97
2022-12-15T05:26:36.279Z,94700.81
2022-12-15T05:31:48.986Z,94723.31
2022-12-15T05:36:59.171Z,94731.97
2022-12-15T05:42:02.292Z,94719.19
2022-12-15T05:47:14.004Z,94709.03
2022-12-15T05:52:36.693Z,94722.78
2022-12-15T05:57:40.612Z,94723.59
2022-12-15T06:02:53.964Z,94736.56
2022-12-15T06:08:01.349Z,94756.91
2022-12-15T06:13:02.857Z,94758.56
2022-12-15T06:18:06.542Z,94753.63
2022-12-15T06:23:08.081Z,94772.16
2022-12-15T06:28:21.416Z,94761.16
2022-12-15T06:33:23.099Z,94780.84
2022-12-15T06:38:24.836Z,94780.91
2022-12-15T06:43:28.873Z,94796.31
2022-12-15T06:48:31.449Z,94799.44
2022-12-15T06:53:44.805Z,94801.34
2022-12-15T06:58:54.763Z,94801.50
2022-12-15T07:03:57.329Z,94788.78
2022-12-15T07:09:02.418Z,94805.00
2022-12-15T07:14:04.793Z,94789.31
2022-12-15T07:19:11.691Z,94786.34
2022-12-15T07:24:20.275Z,94782.19
2022-12-15T07:29:27.051Z,94785.75
2022-12-15T07:34:28.797Z,94800.66
2022-12-15T07:39:33.498Z,94791.84
2022-12-15T07:44:37.196Z,94798.06
2022-12-15T07:49:42.171Z,94813.13
2022-12-15T07:54:43.650Z,94811.66
2022-12-15T07:59:47.720Z,94828.22
2022-12-15T08:04:59.066Z,94823.97
2022-12-15T08:10:00.562Z,94835.81
2022-12-15T08:15:11.682Z,94834.44
2022-12-15T08:20:26.110Z,94828.72
2022-12-15T08:25:40.499Z,94856.88
2022-12-15T08:30:44.852Z,94850.47
2022-12-15T08:35:56.784Z,94852.56
2022-12-15T08:41:36.719Z,94846.25
2022-12-15T08:46:43.752Z,94852.13
2022-12-15T08:51:52.376Z,94870.00
2022-12-15T08:57:14.073Z,94892.00
2022-12-15T09:02:22.901Z,94879.03
2022-12-15T09:07:26.909Z,94889.84
2022-12-15T09:12:28.575Z,94891.31
2022-12-15T09:17:32.558Z,94893.75
2022-12-15T09:22:50.343Z,94889.41
2022-12-15T09:27:52.066Z,94878.47
2022-12-15T09:33:02.431Z,94907.44
2022-12-15T09:38:09.158Z,94876.59
2022-12-15T09:43:46.756Z,94891.50
2022-12-15T09:48:58.184Z,94870.06
2022-12-15T09:54:02.487Z,94865.75
2022-12-15T09:59:40.521Z,94851.34
2022-12-15T10:04:56.051Z,94836.69
2022-12-15T10:10:15.253Z,94830.19
2022-12-15T10:15:26.710Z,94836.06
2022-12-15T10:20:31.800Z,94834.91
2022-12-15T10:25:33.405Z,94843.28
2022-12-15T10:30:37.274Z,94845.91
2022-12-15T10:35:43.957Z,94836.22
2022-12-15T10:40:57.886Z,94834.16
2022-12-15T10:46:21.607Z,94829.84
2022-12-15T10:51:45.037Z,94811.19
2022-12-15T10:56:58.177Z,94804.44
2022-12-15T11:02:24.380Z,94790.72
2022-12-15T11:07:38.327Z,94778.88
2022-12-15T11:12:58.381Z,94786.31
2022-12-15T11:18:03.601Z,94795.25
2022-12-15T11:23:14.590Z,94793.75
2022-12-15T11:28:20.894Z,94803.44
2022-12-15T11:33:27.099Z,94802.66
2022-12-15T11:38:51.043Z,94808.03
2022-12-15T11:44:31.469Z,94809.91
2022-12-15T11:49:41.457Z,94807.91
2022-12-15T11:55:16.918Z,94800.25
2022-12-15T12:00:22.574Z,94790.69
2022-12-15T12:05:31.901Z,94780.75
2022-12-15T12:10:34.558Z,94758.88
2022-12-15T12:15:57.537Z,94762.41
2022-12-15T12:21:13.687Z,94765.16
2022-12-15T12:26:26.592Z,94776.00
2022-12-15T12:31:51.918Z,94786.84
2022-12-15T12:36:58.814Z,94780.31
2022-12-15T12:42:23.105Z,94762.97
2022-12-15T12:47:31.990Z,94759.81
2022-12-15T12:52:39.961Z,94768.00
2022-12-15T12:57:55.634Z,94759.00
2022-12-15T13:03:26.008Z,94752.91
2022-12-15T13:08:51.685Z,94754.53
2022-12-15T13:13:53.976Z,94717.28
2022-12-15T13:19:06.226Z,94712.31
2022-12-15T13:24:56.102Z,94714.63
2022-12-15T13:30:09.192Z,94709.66
2022-12-15T13:35:15.068Z,94711.16
2022-12-15T13:40:22.621Z,94702.31
2022-12-15T13:45:54.999Z,94703.44
2022-12-15T13:51:24.677Z,94714.19
2022-12-15T13:56:47.158Z,94704.16
2022-12-15T14:01:56.086Z,94708.00
2022-12-15T14:07:08.081Z,94697.97
2022-12-15T14:12:22.213Z,94691.38
2022-12-15T14:17:23.885Z,94698.25
2022-12-15T14:22:32.309Z,94697.47
2022-12-15T14:27:37.577Z,94705.13
2022-12-15T14:32:45.452Z,94690.88
2022-12-15T14:37:47.270Z,94684.72
2022-12-15T14:42:53.460Z,94682.38
2022-12-15T14:53:34.012Z,94670.38
2022-12-15T14:58:39.678Z,94665.72
2022-12-15T15:03:42.368Z,94654.47
2022-12-15T15:09:09.969Z,94652.09
2022-12-15T15:14:22.646Z,94651.19
2022-12-15T15:19:29.089Z,94656.88
2022-12-15T15:24:42.456Z,94662.97
2022-12-15T15:29:44.013Z,94657.88
2022-12-15T15:34:49.294Z,94665.91
2022-12-15T15:39:57.238Z,94682.00
2022-12-15T15:45:15.492Z,94690.38
2022-12-15T15:50:32.774Z,94686.44
2022-12-15T15:55:40.033Z,94684.19
2022-12-15T16:00:54.945Z,94673.59
2022-12-15T16:05:58.866Z,94675.47
2022-12-15T16:11:06.460Z,94673.47
2022-12-15T16:16:21.612Z,94661.38
2022-12-15T16:21:30.188Z,94666.63
2022-12-15T16:26:33.170Z,94660.88
2022-12-15T16:31:46.059Z,94662.44
2022-12-15T16:36:47.854Z,94657.06
2022-12-15T16:41:51.635Z,94645.59
2022-12-15T16:46:59.234Z,94634.50
2022-12-15T16:52:03.668Z,94637.59
2022-12-15T16:57:14.688Z,94629.47
2022-12-15T17:02:27.460Z,94625.09
2022-12-15T17:07:35.919Z,94637.13
2022-12-15T17:12:45.704Z,94621.56
2022-12-15T17:17:47.504Z,94630.13
2022-12-15T17:23:06.603Z,94618.69
2022-12-15T17:28:19.382Z,94638.03
2022-12-15T17:33:30.948Z,94647.56
2022-12-15T17:38:36.137Z,94649.63
2022-12-15T17:44:32.436Z,94635.56
2022-12-15T17:49:37.701Z,94636.94
2022-12-15T17:54:39.800Z,94641.75
2022-12-15T17:59:48.171Z,94618.38
2022-12-15T18:04:49.978Z,94605.44
2022-12-15T18:09:53.999Z,94591.06
2022-12-15T18:15:22.227Z,94584.16
2022-12-15T18:20:31.138Z,94581.91
2022-12-15T18:25:44.533Z,94578.91
2022-12-15T18:30:49.459Z,94570.22
2022-12-15T18:35:51.898Z,94561.88
2022-12-15T18:40:57.901Z,94565.38
2022-12-15T18:46:00.156Z,94561.97
2022-12-15T18:51:17.848Z,94568.19
2022-12-15T18:56:23.428Z,94557.09
2022-12-15T19:01:33.543Z,94557.91
2022-12-15T19:06:40.222Z,94561.81
2022-12-15T19:12:06.182Z,94564.50
2022-12-15T19:17:31.158Z,94550.28
2022-12-15T19:22:34.747Z,94553.63
2022-12-15T19:27:39.907Z,94553.13
2022-12-15T19:32:50.347Z,94545.44
2022-12-15T19:37:59.049Z,94537.44
2022-12-15T19:43:05.218Z,94521.28
2022-12-15T19:48:12.586Z,94515.91
2022-12-15T19:53:24.318Z,94509.78
2022-12-15T19:58:42.665Z,94508.63
2022-12-15T20:03:56.277Z,94502.06
2022-12-15T20:08:59.756Z,94494.38
2022-12-15T20:14:13.851Z,94487.88
2022-12-15T20:19:18.415Z,94476.78
2022-12-15T20:24:29.602Z,94479.13
2022-12-15T20:29:45.940Z,94482.59
2022-12-15T20:34:48.358Z,94462.91
2022-12-15T20:39:55.540Z,94477.81
2022-12-15T20:44:58.826Z,94468.91
2022-12-15T20:50:00.499Z,94466.94
2022-12-15T20:55:03.050Z,94461.97
2022-12-15T21:00:05.833Z,94453.63
2022-12-15T21:05:08.385Z,94450.63
2022-12-15T21:10:12.815Z,94448.41
2022-12-15T21:15:18.712Z,94442.59
2022-12-15T21:20:20.264Z,94436.47
2022-12-15T21:25:26.440Z,94442.25
2022-12-15T21:30:28.112Z,94436.81
2022-12-15T21:35:31.897Z,94442.88
2022-12-15T21:40:33.862Z,94423.59
2022-12-15T21:45:35.446Z,94423.94
2022-12-15T21:50:38.445Z,94412.28
2022-12-15T21:55:41.079Z,94409.47
2022-12-15T22:00:45.778Z,94411.72
2022-12-15T22:05:47.494Z,94396.47
2022-12-15T22:10:50.963Z,94404.53
2022-12-15T22:15:54.714Z,94389.94
2022-12-15T22:20:56.560Z,94398.06
2022-12-15T22:25:58.272Z,94404.44
2022-12-15T22:31:02.126Z,94383.63
2022-12-15T22:36:03.885Z,94386.47
2022-12-15T22:41:06.900Z,94400.22
2022-12-15T22:46:12.500Z,94397.28
2022-12-15T22:51:16.127Z,94399.63
2022-12-15T22:56:23.780Z,94399.19
2022-12-15T23:01:26.804Z,94388.25
2022-12-15T23:06:28.410Z,94392.56
2022-12-15T23:11:38.707Z,94380.72
2022-12-15T23:16:40.702Z,94375.25
2022-12-15T23:21:42.283Z,94378.38
2022-12-15T23:26:44.094Z,94378.16
2022-12-15T23:31:45.652Z,94378.28
2022-12-15T23:36:47.305Z,94370.38
2022-12-15T23:41:48.829Z,94376.59
2022-12-15T23:46:50.452Z,94374.63
2022-12-15T23:51:52.073Z,94371.38
2022-12-15T23:56:53.654Z,94371.25
